sensor_id;sensor_type;location;lat;lon;timestamp;temperature;humidity
66088;DHT22;52872;52.994;6.940;2023-05-07T00:01:49;13.30;99.90
66088;DHT22;52872;52.994;6.940;2023-05-07T00:04:16;13.30;99.90
66088;DHT22;52872;52.994;6.940;2023-05-07T00:06:44;13.20;99.90
66088;DHT22;52872;52.994;6.940;2023-05-07T00:09:11;13.20;99.90
66088;DHT22;52872;52.994;6.940;2023-05-07T00:11:37;13.20;99.90
66088;DHT22;52872;52.994;6.940;2023-05-07T00:14:04;13.20;99.90
66088;DHT22;52872;52.994;6.940;2023-05-07T00:16:31;13.20;99.90
66088;DHT22;52872;52.994;6.940;2023-05-07T00:18:58;13.10;99.90
66088;DHT22;52872;52.994;6.940;2023-05-07T00:21:25;13.10;99.90
66088;DHT22;52872;52.994;6.940;2023-05-07T00:23:55;13.10;99.90
66088;DHT22;52872;52.994;6.940;2023-05-07T00:26:22;13.10;99.90
66088;DHT22;52872;52.994;6.940;2023-05-07T00:28:50;13.00;99.90
66088;DHT22;52872;52.994;6.940;2023-05-07T00:31:17;13.00;99.90
66088;DHT22;52872;52.994;6.940;2023-05-07T00:33:44;12.90;99.90
66088;DHT22;52872;52.994;6.940;2023-05-07T00:36:11;12.90;99.90
66088;DHT22;52872;52.994;6.940;2023-05-07T00:38:38;12.90;99.90
66088;DHT22;52872;52.994;6.940;2023-05-07T00:41:06;12.80;99.90
66088;DHT22;52872;52.994;6.940;2023-05-07T00:43:33;12.80;99.90
66088;DHT22;52872;52.994;6.940;2023-05-07T00:46:00;12.80;99.90
66088;DHT22;52872;52.994;6.940;2023-05-07T00:48:27;12.70;99.90
66088;DHT22;52872;52.994;6.940;2023-05-07T00:50:55;12.70;99.90
66088;DHT22;52872;52.994;6.940;2023-05-07T00:53:22;12.70;99.90
66088;DHT22;52872;52.994;6.940;2023-05-07T00:55:49;12.60;99.90
66088;DHT22;52872;52.994;6.940;2023-05-07T00:58:16;12.60;99.90
66088;DHT22;52872;52.994;6.940;2023-05-07T01:00:43;12.60;99.90
66088;DHT22;52872;52.994;6.940;2023-05-07T01:03:10;12.60;99.90
66088;DHT22;52872;52.994;6.940;2023-05-07T01:05:37;12.60;99.90
66088;DHT22;52872;52.994;6.940;2023-05-07T01:08:05;12.50;99.90
66088;DHT22;52872;52.994;6.940;2023-05-07T01:10:32;12.50;99.90
66088;DHT22;52872;52.994;6.940;2023-05-07T01:12:59;12.50;99.90
66088;DHT22;52872;52.994;6.940;2023-05-07T01:15:27;12.50;99.90
66088;DHT22;52872;52.994;6.940;2023-05-07T01:17:55;12.50;99.90
66088;DHT22;52872;52.994;6.940;2023-05-07T01:20:30;12.50;99.90
66088;DHT22;52872;52.994;6.940;2023-05-07T01:22:57;12.50;99.90
66088;DHT22;52872;52.994;6.940;2023-05-07T01:25:27;12.40;99.90
66088;DHT22;52872;52.994;6.940;2023-05-07T01:27:57;12.40;99.90
66088;DHT22;52872;52.994;6.940;2023-05-07T01:30:29;12.40;99.90
66088;DHT22;52872;52.994;6.940;2023-05-07T01:33:04;12.40;99.90
66088;DHT22;52872;52.994;6.940;2023-05-07T01:35:36;12.40;99.90
66088;DHT22;52872;52.994;6.940;2023-05-07T01:38:04;12.40;99.90
66088;DHT22;52872;52.994;6.940;2023-05-07T01:40:33;12.40;99.90
66088;DHT22;52872;52.994;6.940;2023-05-07T01:43:02;12.30;99.90
66088;DHT22;52872;52.994;6.940;2023-05-07T01:45:31;12.30;99.90
66088;DHT22;52872;52.994;6.940;2023-05-07T01:47:59;12.30;99.90
66088;DHT22;52872;52.994;6.940;2023-05-07T01:50:27;12.30;99.90
66088;DHT22;52872;52.994;6.940;2023-05-07T01:52:54;12.30;99.90
66088;DHT22;52872;52.994;6.940;2023-05-07T01:55:21;12.30;99.90
66088;DHT22;52872;52.994;6.940;2023-05-07T01:57:48;12.30;99.90
66088;DHT22;52872;52.994;6.940;2023-05-07T02:00:15;12.20;99.90
66088;DHT22;52872;52.994;6.940;2023-05-07T02:02:44;12.20;99.90
66088;DHT22;52872;52.994;6.940;2023-05-07T02:05:23;12.20;99.90
66088;DHT22;52872;52.994;6.940;2023-05-07T02:07:57;12.20;99.90
66088;DHT22;52872;52.994;6.940;2023-05-07T02:10:26;12.20;99.90
66088;DHT22;52872;52.994;6.940;2023-05-07T02:12:53;12.20;99.90
66088;DHT22;52872;52.994;6.940;2023-05-07T02:15:20;12.20;99.90
66088;DHT22;52872;52.994;6.940;2023-05-07T02:18:18;12.20;99.90
66088;DHT22;52872;52.994;6.940;2023-05-07T02:20:45;12.20;99.90
66088;DHT22;52872;52.994;6.940;2023-05-07T02:23:12;12.20;99.90
66088;DHT22;52872;52.994;6.940;2023-05-07T02:25:39;12.20;99.90
66088;DHT22;52872;52.994;6.940;2023-05-07T02:28:06;12.10;99.90
66088;DHT22;52872;52.994;6.940;2023-05-07T02:30:42;12.10;99.90
66088;DHT22;52872;52.994;6.940;2023-05-07T02:33:10;12.00;99.90
66088;DHT22;52872;52.994;6.940;2023-05-07T02:35:40;12.10;99.90
66088;DHT22;52872;52.994;6.940;2023-05-07T02:38:07;12.00;99.90
66088;DHT22;52872;52.994;6.940;2023-05-07T02:40:34;12.00;99.90
66088;DHT22;52872;52.994;6.940;2023-05-07T02:43:05;12.00;99.90
66088;DHT22;52872;52.994;6.940;2023-05-07T02:45:33;12.00;99.90
66088;DHT22;52872;52.994;6.940;2023-05-07T02:48:01;12.00;99.90
66088;DHT22;52872;52.994;6.940;2023-05-07T02:50:28;11.90;99.90
66088;DHT22;52872;52.994;6.940;2023-05-07T02:52:56;12.00;99.90
66088;DHT22;52872;52.994;6.940;2023-05-07T02:55:23;12.00;99.90
66088;DHT22;52872;52.994;6.940;2023-05-07T02:57:50;12.00;99.90
66088;DHT22;52872;52.994;6.940;2023-05-07T03:00:18;12.00;99.90
66088;DHT22;52872;52.994;6.940;2023-05-07T03:02:53;12.00;99.90
66088;DHT22;52872;52.994;6.940;2023-05-07T03:05:21;12.00;99.90
66088;DHT22;52872;52.994;6.940;2023-05-07T03:07:48;11.90;99.90
66088;DHT22;52872;52.994;6.940;2023-05-07T03:10:15;11.90;99.90
66088;DHT22;52872;52.994;6.940;2023-05-07T03:12:42;11.90;99.90
66088;DHT22;52872;52.994;6.940;2023-05-07T03:15:14;11.90;99.90
66088;DHT22;52872;52.994;6.940;2023-05-07T03:17:41;11.90;99.90
66088;DHT22;52872;52.994;6.940;2023-05-07T03:20:08;11.90;99.90
66088;DHT22;52872;52.994;6.940;2023-05-07T03:22:37;11.90;99.90
66088;DHT22;52872;52.994;6.940;2023-05-07T03:25:04;11.90;99.90
66088;DHT22;52872;52.994;6.940;2023-05-07T03:27:31;11.90;99.90
66088;DHT22;52872;52.994;6.940;2023-05-07T03:29:58;11.90;99.90
66088;DHT22;52872;52.994;6.940;2023-05-07T03:32:25;11.90;99.90
66088;DHT22;52872;52.994;6.940;2023-05-07T03:34:52;11.80;99.90
66088;DHT22;52872;52.994;6.940;2023-05-07T03:37:20;11.80;99.90
66088;DHT22;52872;52.994;6.940;2023-05-07T03:39:48;11.80;99.90
66088;DHT22;52872;52.994;6.940;2023-05-07T03:42:15;11.80;99.90
66088;DHT22;52872;52.994;6.940;2023-05-07T03:44:42;11.80;99.90
66088;DHT22;52872;52.994;6.940;2023-05-07T03:47:09;11.80;99.90
66088;DHT22;52872;52.994;6.940;2023-05-07T03:49:37;11.80;99.90
66088;DHT22;52872;52.994;6.940;2023-05-07T03:52:05;11.80;99.90
66088;DHT22;52872;52.994;6.940;2023-05-07T03:54:33;11.80;99.90
66088;DHT22;52872;52.994;6.940;2023-05-07T03:57:00;11.80;99.90
66088;DHT22;52872;52.994;6.940;2023-05-07T03:59:27;11.80;99.90
66088;DHT22;52872;52.994;6.940;2023-05-07T04:01:54;11.80;99.90
66088;DHT22;52872;52.994;6.940;2023-05-07T04:04:23;11.80;99.90
66088;DHT22;52872;52.994;6.940;2023-05-07T04:06:50;11.80;99.90
66088;DHT22;52872;52.994;6.940;2023-05-07T04:09:17;11.80;99.90
66088;DHT22;52872;52.994;6.940;2023-05-07T04:11:45;11.80;99.90
66088;DHT22;52872;52.994;6.940;2023-05-07T04:14:12;11.80;99.90
66088;DHT22;52872;52.994;6.940;2023-05-07T04:16:39;11.80;99.90
66088;DHT22;52872;52.994;6.940;2023-05-07T04:19:07;11.80;99.90
66088;DHT22;52872;52.994;6.940;2023-05-07T04:21:35;11.80;99.90
66088;DHT22;52872;52.994;6.940;2023-05-07T04:24:05;11.80;99.90
66088;DHT22;52872;52.994;6.940;2023-05-07T04:26:32;11.90;99.90
66088;DHT22;52872;52.994;6.940;2023-05-07T04:29:00;11.90;99.90
66088;DHT22;52872;52.994;6.940;2023-05-07T04:31:32;11.80;99.90
66088;DHT22;52872;52.994;6.940;2023-05-07T04:33:59;11.80;99.90
66088;DHT22;52872;52.994;6.940;2023-05-07T04:36:26;11.80;99.90
66088;DHT22;52872;52.994;6.940;2023-05-07T04:39:02;11.80;99.90
66088;DHT22;52872;52.994;6.940;2023-05-07T04:41:29;11.80;99.90
66088;DHT22;52872;52.994;6.940;2023-05-07T04:43:57;11.80;99.90
66088;DHT22;52872;52.994;6.940;2023-05-07T04:46:27;11.90;99.90
66088;DHT22;52872;52.994;6.940;2023-05-07T04:48:56;11.90;99.90
66088;DHT22;52872;52.994;6.940;2023-05-07T04:51:23;11.90;99.90
66088;DHT22;52872;52.994;6.940;2023-05-07T04:53:50;11.90;99.90
66088;DHT22;52872;52.994;6.940;2023-05-07T04:56:17;11.90;99.90
66088;DHT22;52872;52.994;6.940;2023-05-07T04:58:46;12.00;99.90
66088;DHT22;52872;52.994;6.940;2023-05-07T05:01:14;12.00;99.90
66088;DHT22;52872;52.994;6.940;2023-05-07T05:03:41;12.00;99.90
66088;DHT22;52872;52.994;6.940;2023-05-07T05:06:09;12.10;99.90
66088;DHT22;52872;52.994;6.940;2023-05-07T05:08:36;12.20;99.90
66088;DHT22;52872;52.994;6.940;2023-05-07T05:11:03;12.20;99.90
66088;DHT22;52872;52.994;6.940;2023-05-07T05:13:33;12.20;99.90
66088;DHT22;52872;52.994;6.940;2023-05-07T05:16:06;12.20;99.90
66088;DHT22;52872;52.994;6.940;2023-05-07T05:18:33;12.20;99.90
66088;DHT22;52872;52.994;6.940;2023-05-07T05:21:00;12.20;99.90
66088;DHT22;52872;52.994;6.940;2023-05-07T05:23:27;12.20;99.90
66088;DHT22;52872;52.994;6.940;2023-05-07T05:25:56;12.20;99.90
66088;DHT22;52872;52.994;6.940;2023-05-07T05:28:26;12.30;99.90
66088;DHT22;52872;52.994;6.940;2023-05-07T05:30:55;12.30;99.90
66088;DHT22;52872;52.994;6.940;2023-05-07T05:33:23;12.40;99.90
66088;DHT22;52872;52.994;6.940;2023-05-07T05:35:50;12.40;99.90
66088;DHT22;52872;52.994;6.940;2023-05-07T05:38:17;12.50;99.90
66088;DHT22;52872;52.994;6.940;2023-05-07T05:40:45;12.50;99.90
66088;DHT22;52872;52.994;6.940;2023-05-07T05:43:13;12.50;99.90
66088;DHT22;52872;52.994;6.940;2023-05-07T05:45:40;12.50;99.90
66088;DHT22;52872;52.994;6.940;2023-05-07T05:48:07;12.60;99.90
66088;DHT22;52872;52.994;6.940;2023-05-07T05:50:35;12.60;99.90
66088;DHT22;52872;52.994;6.940;2023-05-07T05:53:04;12.60;99.90
66088;DHT22;52872;52.994;6.940;2023-05-07T05:55:31;12.60;99.90
66088;DHT22;52872;52.994;6.940;2023-05-07T05:58:01;12.60;99.90
66088;DHT22;52872;52.994;6.940;2023-05-07T06:00:31;12.70;99.90
66088;DHT22;52872;52.994;6.940;2023-05-07T06:03:02;12.70;99.90
66088;DHT22;52872;52.994;6.940;2023-05-07T06:05:29;12.80;99.90
66088;DHT22;52872;52.994;6.940;2023-05-07T06:07:56;12.80;99.90
66088;DHT22;52872;52.994;6.940;2023-05-07T06:10:25;12.90;99.90
66088;DHT22;52872;52.994;6.940;2023-05-07T06:12:54;12.90;99.90
66088;DHT22;52872;52.994;6.940;2023-05-07T06:15:22;13.00;99.90
66088;DHT22;52872;52.994;6.940;2023-05-07T06:17:49;13.10;99.90
66088;DHT22;52872;52.994;6.940;2023-05-07T06:20:17;13.10;99.90
66088;DHT22;52872;52.994;6.940;2023-05-07T06:22:44;13.20;99.90
66088;DHT22;52872;52.994;6.940;2023-05-07T06:25:13;13.30;99.90
66088;DHT22;52872;52.994;6.940;2023-05-07T06:27:42;13.40;99.90
66088;DHT22;52872;52.994;6.940;2023-05-07T06:30:09;13.50;99.90
66088;DHT22;52872;52.994;6.940;2023-05-07T06:32:36;13.50;99.90
66088;DHT22;52872;52.994;6.940;2023-05-07T06:35:05;13.60;99.90
66088;DHT22;52872;52.994;6.940;2023-05-07T06:37:34;13.70;99.90
66088;DHT22;52872;52.994;6.940;2023-05-07T06:40:05;13.70;99.90
66088;DHT22;52872;52.994;6.940;2023-05-07T06:42:38;13.70;99.90
66088;DHT22;52872;52.994;6.940;2023-05-07T06:45:21;13.70;99.90
66088;DHT22;52872;52.994;6.940;2023-05-07T06:47:49;13.70;99.90
66088;DHT22;52872;52.994;6.940;2023-05-07T06:50:16;13.70;99.90
66088;DHT22;52872;52.994;6.940;2023-05-07T06:52:44;13.60;99.90
66088;DHT22;52872;52.994;6.940;2023-05-07T06:55:11;13.60;99.90
66088;DHT22;52872;52.994;6.940;2023-05-07T06:57:38;13.60;99.90
66088;DHT22;52872;52.994;6.940;2023-05-07T07:00:06;13.50;99.90
66088;DHT22;52872;52.994;6.940;2023-05-07T07:02:44;13.50;99.90
66088;DHT22;52872;52.994;6.940;2023-05-07T07:05:12;13.50;99.90
66088;DHT22;52872;52.994;6.940;2023-05-07T07:07:39;13.50;99.90
66088;DHT22;52872;52.994;6.940;2023-05-07T07:10:07;13.50;99.90
66088;DHT22;52872;52.994;6.940;2023-05-07T07:12:34;13.50;99.90
66088;DHT22;52872;52.994;6.940;2023-05-07T07:15:02;13.50;99.90
66088;DHT22;52872;52.994;6.940;2023-05-07T07:17:29;13.50;99.90
66088;DHT22;52872;52.994;6.940;2023-05-07T07:19:56;13.50;99.90
66088;DHT22;52872;52.994;6.940;2023-05-07T07:22:23;13.50;99.90
66088;DHT22;52872;52.994;6.940;2023-05-07T07:24:50;13.60;99.90
66088;DHT22;52872;52.994;6.940;2023-05-07T07:27:17;13.70;99.90
66088;DHT22;52872;52.994;6.940;2023-05-07T07:29:45;13.80;99.90
66088;DHT22;52872;52.994;6.940;2023-05-07T07:32:11;13.80;99.90
66088;DHT22;52872;52.994;6.940;2023-05-07T07:34:39;14.00;99.90
66088;DHT22;52872;52.994;6.940;2023-05-07T07:37:07;14.20;99.90
66088;DHT22;52872;52.994;6.940;2023-05-07T07:39:35;14.30;99.90
66088;DHT22;52872;52.994;6.940;2023-05-07T07:42:06;14.50;99.90
66088;DHT22;52872;52.994;6.940;2023-05-07T07:44:33;14.60;99.90
66088;DHT22;52872;52.994;6.940;2023-05-07T07:47:05;14.70;99.90
66088;DHT22;52872;52.994;6.940;2023-05-07T07:49:32;14.80;99.90
66088;DHT22;52872;52.994;6.940;2023-05-07T07:52:03;15.10;99.90
66088;DHT22;52872;52.994;6.940;2023-05-07T07:54:32;15.20;99.90
66088;DHT22;52872;52.994;6.940;2023-05-07T07:56:59;15.30;99.90
66088;DHT22;52872;52.994;6.940;2023-05-07T07:59:31;15.30;99.90
66088;DHT22;52872;52.994;6.940;2023-05-07T08:01:58;15.50;99.90
66088;DHT22;52872;52.994;6.940;2023-05-07T08:04:27;15.60;99.90
66088;DHT22;52872;52.994;6.940;2023-05-07T08:06:55;15.60;99.90
66088;DHT22;52872;52.994;6.940;2023-05-07T08:09:23;15.60;99.90
66088;DHT22;52872;52.994;6.940;2023-05-07T08:11:52;15.60;99.90
66088;DHT22;52872;52.994;6.940;2023-05-07T08:14:19;15.60;99.90
66088;DHT22;52872;52.994;6.940;2023-05-07T08:16:47;15.70;99.90
66088;DHT22;52872;52.994;6.940;2023-05-07T08:19:14;15.90;99.90
66088;DHT22;52872;52.994;6.940;2023-05-07T08:21:41;16.10;99.90
66088;DHT22;52872;52.994;6.940;2023-05-07T08:24:10;16.30;99.90
66088;DHT22;52872;52.994;6.940;2023-05-07T08:26:39;16.40;99.90
66088;DHT22;52872;52.994;6.940;2023-05-07T08:29:07;16.40;99.90
66088;DHT22;52872;52.994;6.940;2023-05-07T08:31:34;16.40;99.90
66088;DHT22;52872;52.994;6.940;2023-05-07T08:34:02;16.30;99.90
66088;DHT22;52872;52.994;6.940;2023-05-07T08:36:29;16.40;99.90
66088;DHT22;52872;52.994;6.940;2023-05-07T08:38:57;16.60;99.90
66088;DHT22;52872;52.994;6.940;2023-05-07T08:41:24;16.70;99.90
66088;DHT22;52872;52.994;6.940;2023-05-07T08:43:51;16.80;99.90
66088;DHT22;52872;52.994;6.940;2023-05-07T08:46:21;17.00;99.90
66088;DHT22;52872;52.994;6.940;2023-05-07T08:48:52;17.10;99.90
66088;DHT22;52872;52.994;6.940;2023-05-07T08:51:20;17.20;99.90
66088;DHT22;52872;52.994;6.940;2023-05-07T08:53:49;17.40;99.90
66088;DHT22;52872;52.994;6.940;2023-05-07T08:56:22;17.40;99.90
66088;DHT22;52872;52.994;6.940;2023-05-07T08:58:51;17.60;99.90
66088;DHT22;52872;52.994;6.940;2023-05-07T09:01:18;17.90;99.90
66088;DHT22;52872;52.994;6.940;2023-05-07T09:03:50;18.20;99.90
66088;DHT22;52872;52.994;6.940;2023-05-07T09:06:18;18.20;99.90
66088;DHT22;52872;52.994;6.940;2023-05-07T09:08:50;18.30;99.90
66088;DHT22;52872;52.994;6.940;2023-05-07T09:11:24;18.40;99.90
66088;DHT22;52872;52.994;6.940;2023-05-07T09:13:54;18.30;99.90
66088;DHT22;52872;52.994;6.940;2023-05-07T09:16:28;18.20;99.90
66088;DHT22;52872;52.994;6.940;2023-05-07T09:18:58;18.10;99.90
66088;DHT22;52872;52.994;6.940;2023-05-07T09:21:26;18.10;99.90
66088;DHT22;52872;52.994;6.940;2023-05-07T09:23:56;18.30;99.90
66088;DHT22;52872;52.994;6.940;2023-05-07T09:26:31;18.40;99.90
66088;DHT22;52872;52.994;6.940;2023-05-07T09:28:59;18.50;99.90
66088;DHT22;52872;52.994;6.940;2023-05-07T09:31:27;18.50;99.90
66088;DHT22;52872;52.994;6.940;2023-05-07T09:33:55;18.40;99.90
66088;DHT22;52872;52.994;6.940;2023-05-07T09:36:27;18.30;99.90
66088;DHT22;52872;52.994;6.940;2023-05-07T09:38:54;18.50;99.90
66088;DHT22;52872;52.994;6.940;2023-05-07T09:41:21;18.40;99.90
66088;DHT22;52872;52.994;6.940;2023-05-07T09:44:05;18.60;99.90
66088;DHT22;52872;52.994;6.940;2023-05-07T09:46:39;18.60;99.90
66088;DHT22;52872;52.994;6.940;2023-05-07T09:49:21;18.80;99.90
66088;DHT22;52872;52.994;6.940;2023-05-07T09:51:52;18.90;99.90
66088;DHT22;52872;52.994;6.940;2023-05-07T09:54:23;19.00;99.90
66088;DHT22;52872;52.994;6.940;2023-05-07T09:56:52;19.10;99.90
66088;DHT22;52872;52.994;6.940;2023-05-07T09:59:24;19.20;99.90
66088;DHT22;52872;52.994;6.940;2023-05-07T10:01:58;19.30;99.90
66088;DHT22;52872;52.994;6.940;2023-05-07T10:04:26;19.30;99.90
66088;DHT22;52872;52.994;6.940;2023-05-07T10:06:54;19.40;99.90
66088;DHT22;52872;52.994;6.940;2023-05-07T10:09:23;19.70;99.90
66088;DHT22;52872;52.994;6.940;2023-05-07T10:11:51;19.90;99.90
66088;DHT22;52872;52.994;6.940;2023-05-07T10:14:21;19.90;99.90
66088;DHT22;52872;52.994;6.940;2023-05-07T10:16:49;19.70;99.90
66088;DHT22;52872;52.994;6.940;2023-05-07T10:19:17;19.70;99.90
66088;DHT22;52872;52.994;6.940;2023-05-07T10:22:03;19.60;99.90
66088;DHT22;52872;52.994;6.940;2023-05-07T10:24:34;19.40;99.90
66088;DHT22;52872;52.994;6.940;2023-05-07T10:27:10;19.30;99.90
66088;DHT22;52872;52.994;6.940;2023-05-07T10:29:50;19.30;99.90
66088;DHT22;52872;52.994;6.940;2023-05-07T10:35:14;19.40;99.90
66088;DHT22;52872;52.994;6.940;2023-05-07T10:37:42;19.60;99.90
66088;DHT22;52872;52.994;6.940;2023-05-07T10:40:11;19.60;99.90
66088;DHT22;52872;52.994;6.940;2023-05-07T10:42:39;19.50;99.90
66088;DHT22;52872;52.994;6.940;2023-05-07T10:45:19;19.60;99.90
66088;DHT22;52872;52.994;6.940;2023-05-07T10:51:18;19.30;99.90
66088;DHT22;52872;52.994;6.940;2023-05-07T10:53:48;19.10;99.90
66088;DHT22;52872;52.994;6.940;2023-05-07T11:02:03;19.00;99.90
66088;DHT22;52872;52.994;6.940;2023-05-07T11:04:38;19.00;99.90
66088;DHT22;52872;52.994;6.940;2023-05-07T11:07:30;19.00;99.90
66088;DHT22;52872;52.994;6.940;2023-05-07T11:10:08;19.20;99.90
66088;DHT22;52872;52.994;6.940;2023-05-07T11:12:52;19.10;99.90
66088;DHT22;52872;52.994;6.940;2023-05-07T11:15:42;19.10;99.90
66088;DHT22;52872;52.994;6.940;2023-05-07T11:18:18;19.30;99.90
66088;DHT22;52872;52.994;6.940;2023-05-07T11:20:55;19.30;99.90
66088;DHT22;52872;52.994;6.940;2023-05-07T11:23:55;19.40;99.90
66088;DHT22;52872;52.994;6.940;2023-05-07T11:26:44;19.50;99.90
66088;DHT22;52872;52.994;6.940;2023-05-07T11:29:13;19.50;99.90
66088;DHT22;52872;52.994;6.940;2023-05-07T11:31:42;19.50;99.90
66088;DHT22;52872;52.994;6.940;2023-05-07T11:34:10;19.30;99.90
66088;DHT22;52872;52.994;6.940;2023-05-07T11:36:42;19.20;99.90
66088;DHT22;52872;52.994;6.940;2023-05-07T11:39:33;19.30;99.90
66088;DHT22;52872;52.994;6.940;2023-05-07T11:42:01;19.40;99.90
66088;DHT22;52872;52.994;6.940;2023-05-07T11:44:44;19.30;99.90
66088;DHT22;52872;52.994;6.940;2023-05-07T11:47:18;19.30;99.90
66088;DHT22;52872;52.994;6.940;2023-05-07T11:49:49;19.30;99.90
66088;DHT22;52872;52.994;6.940;2023-05-07T11:52:17;19.20;99.90
66088;DHT22;52872;52.994;6.940;2023-05-07T11:54:55;19.10;99.90
66088;DHT22;52872;52.994;6.940;2023-05-07T11:57:23;19.10;99.90
66088;DHT22;52872;52.994;6.940;2023-05-07T11:59:57;19.10;99.90
66088;DHT22;52872;52.994;6.940;2023-05-07T12:02:25;19.10;99.90
66088;DHT22;52872;52.994;6.940;2023-05-07T12:04:53;19.10;99.90
66088;DHT22;52872;52.994;6.940;2023-05-07T12:07:21;19.20;99.90
66088;DHT22;52872;52.994;6.940;2023-05-07T12:09:48;19.40;99.90
66088;DHT22;52872;52.994;6.940;2023-05-07T12:12:15;19.70;99.90
66088;DHT22;52872;52.994;6.940;2023-05-07T12:14:45;20.00;99.90
66088;DHT22;52872;52.994;6.940;2023-05-07T12:17:14;20.30;99.90
66088;DHT22;52872;52.994;6.940;2023-05-07T12:19:42;20.40;99.90
66088;DHT22;52872;52.994;6.940;2023-05-07T12:22:10;20.50;99.90
66088;DHT22;52872;52.994;6.940;2023-05-07T12:27:10;20.90;99.90
66088;DHT22;52872;52.994;6.940;2023-05-07T12:29:37;20.90;99.90
66088;DHT22;52872;52.994;6.940;2023-05-07T12:32:06;20.90;99.90
66088;DHT22;52872;52.994;6.940;2023-05-07T12:34:39;20.80;99.90
66088;DHT22;52872;52.994;6.940;2023-05-07T12:37:10;20.60;99.90
66088;DHT22;52872;52.994;6.940;2023-05-07T12:39:38;20.60;99.90
66088;DHT22;52872;52.994;6.940;2023-05-07T12:42:05;20.50;99.90
66088;DHT22;52872;52.994;6.940;2023-05-07T12:44:33;20.50;99.90
66088;DHT22;52872;52.994;6.940;2023-05-07T12:47:03;20.60;99.90
66088;DHT22;52872;52.994;6.940;2023-05-07T12:49:30;20.50;99.90
66088;DHT22;52872;52.994;6.940;2023-05-07T12:51:58;20.60;99.90
66088;DHT22;52872;52.994;6.940;2023-05-07T12:54:29;20.70;99.90
66088;DHT22;52872;52.994;6.940;2023-05-07T12:57:05;20.80;99.90
66088;DHT22;52872;52.994;6.940;2023-05-07T12:59:38;20.80;99.90
66088;DHT22;52872;52.994;6.940;2023-05-07T13:02:07;20.70;99.90
66088;DHT22;52872;52.994;6.940;2023-05-07T13:04:35;20.60;99.90
66088;DHT22;52872;52.994;6.940;2023-05-07T13:07:02;20.70;99.90
66088;DHT22;52872;52.994;6.940;2023-05-07T13:09:30;20.70;99.90
66088;DHT22;52872;52.994;6.940;2023-05-07T13:11:58;20.70;99.90
66088;DHT22;52872;52.994;6.940;2023-05-07T13:14:34;20.80;99.90
66088;DHT22;52872;52.994;6.940;2023-05-07T13:17:01;20.80;99.90
66088;DHT22;52872;52.994;6.940;2023-05-07T13:19:28;20.80;99.90
66088;DHT22;52872;52.994;6.940;2023-05-07T13:21:57;21.00;99.90
66088;DHT22;52872;52.994;6.940;2023-05-07T13:24:23;21.10;99.90
66088;DHT22;52872;52.994;6.940;2023-05-07T13:26:50;21.20;99.90
66088;DHT22;52872;52.994;6.940;2023-05-07T13:29:18;21.30;99.90
66088;DHT22;52872;52.994;6.940;2023-05-07T13:31:44;21.30;99.90
66088;DHT22;52872;52.994;6.940;2023-05-07T13:34:13;21.20;99.90
66088;DHT22;52872;52.994;6.940;2023-05-07T13:36:40;21.10;99.90
66088;DHT22;52872;52.994;6.940;2023-05-07T13:39:09;21.00;99.90
66088;DHT22;52872;52.994;6.940;2023-05-07T13:41:36;20.80;99.90
66088;DHT22;52872;52.994;6.940;2023-05-07T13:44:03;20.70;99.90
66088;DHT22;52872;52.994;6.940;2023-05-07T13:46:30;20.70;99.90
66088;DHT22;52872;52.994;6.940;2023-05-07T13:48:57;20.70;99.90
66088;DHT22;52872;52.994;6.940;2023-05-07T13:51:24;20.60;99.90
66088;DHT22;52872;52.994;6.940;2023-05-07T13:53:52;20.70;99.90
66088;DHT22;52872;52.994;6.940;2023-05-07T13:56:19;20.60;99.90
66088;DHT22;52872;52.994;6.940;2023-05-07T13:58:46;20.70;99.90
66088;DHT22;52872;52.994;6.940;2023-05-07T14:01:24;20.70;99.90
66088;DHT22;52872;52.994;6.940;2023-05-07T14:03:51;20.60;99.90
66088;DHT22;52872;52.994;6.940;2023-05-07T14:06:18;20.60;99.90
66088;DHT22;52872;52.994;6.940;2023-05-07T14:08:46;20.60;99.90
66088;DHT22;52872;52.994;6.940;2023-05-07T14:11:13;20.50;99.90
66088;DHT22;52872;52.994;6.940;2023-05-07T14:13:40;20.50;99.90
66088;DHT22;52872;52.994;6.940;2023-05-07T14:16:07;20.60;99.90
66088;DHT22;52872;52.994;6.940;2023-05-07T14:18:34;20.70;99.90
66088;DHT22;52872;52.994;6.940;2023-05-07T14:21:04;20.70;99.90
66088;DHT22;52872;52.994;6.940;2023-05-07T14:23:33;20.80;99.90
66088;DHT22;52872;52.994;6.940;2023-05-07T14:26:00;20.90;99.90
66088;DHT22;52872;52.994;6.940;2023-05-07T14:28:27;21.00;99.90
66088;DHT22;52872;52.994;6.940;2023-05-07T14:30:54;21.10;99.90
66088;DHT22;52872;52.994;6.940;2023-05-07T14:33:21;21.20;99.90
66088;DHT22;52872;52.994;6.940;2023-05-07T14:35:48;21.10;99.90
66088;DHT22;52872;52.994;6.940;2023-05-07T14:38:16;21.10;99.90
66088;DHT22;52872;52.994;6.940;2023-05-07T14:40:44;21.10;99.90
66088;DHT22;52872;52.994;6.940;2023-05-07T14:43:11;21.00;99.90
66088;DHT22;52872;52.994;6.940;2023-05-07T14:45:38;20.70;99.90
66088;DHT22;52872;52.994;6.940;2023-05-07T14:48:06;20.60;99.90
66088;DHT22;52872;52.994;6.940;2023-05-07T14:50:33;20.50;99.90
66088;DHT22;52872;52.994;6.940;2023-05-07T14:52:59;20.50;99.90
66088;DHT22;52872;52.994;6.940;2023-05-07T14:55:29;20.40;99.90
66088;DHT22;52872;52.994;6.940;2023-05-07T14:57:56;20.30;99.90
66088;DHT22;52872;52.994;6.940;2023-05-07T15:00:24;20.20;99.90
66088;DHT22;52872;52.994;6.940;2023-05-07T15:02:51;20.20;99.90
66088;DHT22;52872;52.994;6.940;2023-05-07T15:05:18;20.40;99.90
66088;DHT22;52872;52.994;6.940;2023-05-07T15:07:45;20.40;99.90
66088;DHT22;52872;52.994;6.940;2023-05-07T15:10:13;20.50;99.90
66088;DHT22;52872;52.994;6.940;2023-05-07T15:12:40;20.60;99.90
66088;DHT22;52872;52.994;6.940;2023-05-07T15:15:07;20.70;99.90
66088;DHT22;52872;52.994;6.940;2023-05-07T15:17:34;20.70;99.90
66088;DHT22;52872;52.994;6.940;2023-05-07T15:20:02;20.70;99.90
66088;DHT22;52872;52.994;6.940;2023-05-07T15:22:31;20.70;99.90
66088;DHT22;52872;52.994;6.940;2023-05-07T15:24:58;20.60;99.90
66088;DHT22;52872;52.994;6.940;2023-05-07T15:27:25;20.60;99.90
66088;DHT22;52872;52.994;6.940;2023-05-07T15:29:52;20.50;99.90
66088;DHT22;52872;52.994;6.940;2023-05-07T15:32:19;20.40;99.90
66088;DHT22;52872;52.994;6.940;2023-05-07T15:34:46;20.50;99.90
66088;DHT22;52872;52.994;6.940;2023-05-07T15:37:13;20.50;99.90
66088;DHT22;52872;52.994;6.940;2023-05-07T15:39:40;20.60;99.90
66088;DHT22;52872;52.994;6.940;2023-05-07T15:42:07;20.60;99.90
66088;DHT22;52872;52.994;6.940;2023-05-07T15:44:34;20.60;99.90
66088;DHT22;52872;52.994;6.940;2023-05-07T15:47:01;20.60;99.90
66088;DHT22;52872;52.994;6.940;2023-05-07T15:49:28;20.60;99.90
66088;DHT22;52872;52.994;6.940;2023-05-07T15:51:55;20.70;99.90
66088;DHT22;52872;52.994;6.940;2023-05-07T15:54:23;20.80;99.90
66088;DHT22;52872;52.994;6.940;2023-05-07T15:56:50;20.80;99.90